createdAt,value
2024-03-11T00:00:20.006Z,73.000000
2024-03-11T00:01:20.201Z,73.000000
2024-03-11T00:02:20.187Z,73.000000
2024-03-11T00:03:20.361Z,73.000000
2024-03-11T00:04:20.278Z,73.000000
2024-03-11T00:05:20.364Z,73.000000
2024-03-11T00:06:21.500Z,73.000000
2024-03-11T00:07:19.851Z,73.000000
2024-03-11T00:08:19.865Z,72.000000
2024-03-11T00:09:18.410Z,72.000000
2024-03-11T00:10:20.223Z,72.000000
2024-03-11T00:11:20.112Z,72.000000
2024-03-11T00:12:20.606Z,72.000000
2024-03-11T00:13:20.693Z,72.000000
2024-03-11T00:14:20.171Z,72.000000
2024-03-11T00:15:20.266Z,72.000000
2024-03-11T00:16:20.455Z,72.000000
2024-03-11T00:17:20.837Z,71.000000
2024-03-11T00:18:18.875Z,71.000000
2024-03-11T00:19:19.874Z,71.000000
2024-03-11T00:20:20.536Z,71.000000
2024-03-11T00:21:19.991Z,71.000000
2024-03-11T00:22:20.507Z,71.000000
2024-03-11T00:23:20.134Z,71.000000
2024-03-11T00:24:20.612Z,71.000000
2024-03-11T00:25:20.221Z,71.000000
2024-03-11T00:26:20.679Z,70.000000
2024-03-11T00:27:20.895Z,70.000000
2024-03-11T00:28:20.276Z,70.000000
2024-03-11T00:29:20.405Z,70.000000
2024-03-11T00:30:19.886Z,70.000000
2024-03-11T00:31:19.965Z,70.000000
2024-03-11T00:32:20.064Z,70.000000
2024-03-11T00:33:20.086Z,70.000000
2024-03-11T00:34:20.540Z,70.000000
2024-03-11T00:35:20.262Z,70.000000
2024-03-11T00:36:20.645Z,70.000000
2024-03-11T00:37:20.190Z,70.000000
2024-03-11T00:38:20.264Z,71.000000
2024-03-11T00:39:20.347Z,71.000000
2024-03-11T00:40:18.408Z,71.000000
2024-03-11T00:41:18.371Z,71.000000
2024-03-11T00:42:18.433Z,71.000000
2024-03-11T00:43:20.472Z,71.000000
2024-03-11T00:44:20.138Z,71.000000
2024-03-11T00:45:20.122Z,71.000000
2024-03-11T00:46:20.169Z,71.000000
2024-03-11T00:47:20.249Z,71.000000
2024-03-11T00:48:20.713Z,71.000000
2024-03-11T00:49:20.253Z,71.000000
2024-03-11T00:50:20.517Z,71.000000
2024-03-11T00:51:20.371Z,72.000000
2024-03-11T00:52:20.388Z,72.000000
2024-03-11T00:53:18.557Z,72.000000
2024-03-11T00:54:20.495Z,72.000000
2024-03-11T00:55:20.515Z,72.000000
2024-03-11T00:56:20.021Z,72.000000
2024-03-11T00:57:20.144Z,72.000000
2024-03-11T00:58:20.205Z,72.000000
2024-03-11T00:59:20.228Z,72.000000
2024-03-11T01:00:20.334Z,72.000000
2024-03-11T01:01:20.399Z,72.000000
2024-03-11T01:02:18.343Z,73.000000
2024-03-11T01:03:20.448Z,73.000000
2024-03-11T01:04:18.432Z,73.000000
2024-03-11T01:05:18.613Z,72.000000
2024-03-11T01:06:19.977Z,72.000000
2024-03-11T01:07:25.522Z,72.000000
2024-03-11T01:08:20.950Z,72.000000
2024-03-11T01:09:20.706Z,72.000000
2024-03-11T01:10:20.211Z,72.000000
2024-03-11T01:11:20.379Z,72.000000
2024-03-11T01:12:20.257Z,72.000000
2024-03-11T01:13:18.305Z,72.000000
2024-03-11T01:14:18.947Z,73.000000
2024-03-11T01:15:18.449Z,73.000000
2024-03-11T01:16:18.459Z,72.000000
2024-03-11T01:17:20.456Z,72.000000
2024-03-11T01:18:20.029Z,72.000000
2024-03-11T01:19:23.327Z,72.000000
2024-03-11T01:20:20.142Z,72.000000
2024-03-11T01:21:20.185Z,73.000000
2024-03-11T01:22:20.165Z,73.000000
2024-03-11T01:23:20.843Z,72.000000
2024-03-11T01:24:20.297Z,72.000000
2024-03-11T01:25:18.430Z,72.000000
2024-03-11T01:26:18.445Z,73.000000
2024-03-11T01:27:18.425Z,73.000000
2024-03-11T01:28:20.041Z,73.000000
2024-03-11T01:29:18.591Z,73.000000
2024-03-11T01:30:20.644Z,73.000000
2024-03-11T01:31:18.651Z,73.000000
2024-03-11T01:32:20.243Z,73.000000
2024-03-11T01:33:20.216Z,73.000000
2024-03-11T01:34:20.308Z,73.000000
2024-03-11T01:35:20.336Z,73.000000
2024-03-11T01:36:18.407Z,73.000000
2024-03-11T01:37:18.367Z,73.000000
2024-03-11T01:38:18.498Z,73.000000
2024-03-11T01:39:18.552Z,73.000000
2024-03-11T01:40:18.561Z,73.000000
2024-03-11T01:41:20.133Z,73.000000
2024-03-11T01:42:20.172Z,73.000000
2024-03-11T01:43:22.054Z,73.000000
2024-03-11T01:44:20.661Z,73.000000
2024-03-11T01:45:20.215Z,73.000000
2024-03-11T01:46:20.338Z,73.000000
2024-03-11T01:47:18.311Z,73.000000
2024-03-11T01:48:18.389Z,73.000000
2024-03-11T01:49:18.420Z,73.000000
2024-03-11T01:50:18.596Z,73.000000
2024-03-11T01:51:18.638Z,73.000000
2024-03-11T01:52:20.073Z,72.000000
2024-03-11T01:53:20.239Z,72.000000
2024-03-11T01:54:20.087Z,72.000000
2024-03-11T01:55:18.770Z,72.000000
2024-03-11T01:56:20.279Z,72.000000
2024-03-11T01:57:20.328Z,72.000000
2024-03-11T01:58:20.318Z,72.000000
2024-03-11T01:59:20.422Z,72.000000
2024-03-11T02:00:18.476Z,72.000000
2024-03-11T02:01:19.444Z,71.000000
2024-03-11T02:02:18.595Z,71.000000
2024-03-11T02:03:20.024Z,71.000000
2024-03-11T02:04:18.578Z,71.000000
2024-03-11T02:05:20.718Z,71.000000
2024-03-11T02:06:20.387Z,71.000000
2024-03-11T02:07:18.847Z,71.000000
2024-03-11T02:08:20.347Z,71.000000
2024-03-11T02:09:20.362Z,71.000000
2024-03-11T02:10:18.424Z,71.000000
2024-03-11T02:11:18.545Z,71.000000
2024-03-11T02:12:18.506Z,71.000000
2024-03-11T02:13:18.535Z,71.000000
2024-03-11T02:14:18.601Z,71.000000
2024-03-11T02:15:18.652Z,71.000000
2024-03-11T02:16:20.235Z,71.000000
2024-03-11T02:17:20.209Z,71.000000
2024-03-11T02:18:20.473Z,71.000000
2024-03-11T02:19:21.737Z,71.000000
2024-03-11T02:20:20.862Z,71.000000
2024-03-11T02:21:18.383Z,72.000000
2024-03-11T02:22:18.382Z,72.000000
2024-03-11T02:23:18.546Z,72.000000
2024-03-11T02:24:18.525Z,72.000000
2024-03-11T02:25:18.570Z,72.000000
2024-03-11T02:26:20.669Z,71.000000
2024-03-11T02:27:18.657Z,72.000000
2024-03-11T02:28:20.170Z,72.000000
2024-03-11T02:29:20.442Z,72.000000
2024-03-11T02:30:20.350Z,72.000000
2024-03-11T02:31:20.304Z,72.000000
2024-03-11T02:32:18.413Z,72.000000
2024-03-11T02:33:18.500Z,72.000000
2024-03-11T02:34:19.266Z,72.000000
2024-03-11T02:35:18.583Z,72.000000
2024-03-11T02:36:18.563Z,72.000000
2024-03-11T02:37:18.591Z,72.000000
2024-03-11T02:38:21.099Z,73.000000
2024-03-11T02:39:20.220Z,72.000000
2024-03-11T02:40:20.864Z,72.000000
2024-03-11T02:41:20.214Z,73.000000
2024-03-11T02:42:20.877Z,73.000000
2024-03-11T02:43:18.318Z,73.000000
2024-03-11T02:44:18.527Z,73.000000
2024-03-11T02:45:18.594Z,73.000000
2024-03-11T02:46:18.517Z,73.000000
2024-03-11T02:47:18.509Z,73.000000
2024-03-11T02:48:18.596Z,73.000000
2024-03-11T02:49:18.607Z,73.000000
2024-03-11T02:50:18.767Z,73.000000
2024-03-11T02:51:20.271Z,73.000000
2024-03-11T02:52:20.320Z,73.000000
2024-03-11T02:53:20.377Z,73.000000
2024-03-11T02:54:18.402Z,73.000000
2024-03-11T02:55:18.451Z,73.000000
2024-03-11T02:56:18.436Z,73.000000
2024-03-11T02:57:18.524Z,74.000000
2024-03-11T02:58:18.518Z,74.000000
2024-03-11T02:59:18.693Z,74.000000
2024-03-11T03:00:18.978Z,74.000000
2024-03-11T03:01:20.626Z,74.000000
2024-03-11T03:02:20.235Z,75.000000
2024-03-11T03:03:20.270Z,75.000000
2024-03-11T03:04:20.361Z,75.000000
2024-03-11T03:05:20.746Z,75.000000
2024-03-11T03:06:18.402Z,75.000000
2024-03-11T03:07:18.508Z,75.000000
2024-03-11T03:08:18.506Z,76.000000
2024-03-11T03:09:18.612Z,76.000000
2024-03-11T03:10:18.672Z,76.000000
2024-03-11T03:11:18.715Z,76.000000
2024-03-11T03:12:19.209Z,76.000000
2024-03-11T03:13:18.706Z,76.000000
2024-03-11T03:14:18.822Z,76.000000
2024-03-11T03:15:20.242Z,76.000000
2024-03-11T03:16:18.381Z,75.000000
2024-03-11T03:17:18.376Z,75.000000
2024-03-11T03:18:18.399Z,75.000000
2024-03-11T03:19:18.509Z,75.000000
2024-03-11T03:20:18.665Z,75.000000
2024-03-11T03:21:18.605Z,75.000000
2024-03-11T03:22:18.662Z,75.000000
2024-03-11T03:23:18.751Z,75.000000
2024-03-11T03:24:18.707Z,75.000000
2024-03-11T03:25:20.244Z,75.000000
2024-03-11T03:26:20.313Z,75.000000
2024-03-11T03:27:20.917Z,75.000000
2024-03-11T03:28:18.398Z,75.000000
2024-03-11T03:29:18.521Z,75.000000
2024-03-11T03:30:18.564Z,75.000000
2024-03-11T03:31:18.674Z,75.000000
2024-03-11T03:32:18.680Z,75.000000
2024-03-11T03:33:18.682Z,75.000000
2024-03-11T03:34:18.638Z,75.000000
2024-03-11T03:35:18.715Z,75.000000
2024-03-11T03:36:18.728Z,75.000000
2024-03-11T03:37:20.254Z,75.000000
2024-03-11T03:38:20.454Z,75.000000
2024-03-11T03:39:18.437Z,75.000000
2024-03-11T03:40:18.946Z,75.000000
2024-03-11T03:41:18.992Z,75.000000
2024-03-11T03:42:18.536Z,75.000000
2024-03-11T03:43:18.605Z,75.000000
2024-03-11T03:44:19.669Z,75.000000
2024-03-11T03:45:18.783Z,75.000000
2024-03-11T03:46:31.699Z,75.000000
2024-03-11T03:47:19.225Z,75.000000
2024-03-11T03:48:20.954Z,75.000000
2024-03-11T03:49:18.405Z,75.000000
2024-03-11T03:50:18.486Z,75.000000
2024-03-11T03:51:18.437Z,75.000000
2024-03-11T03:52:19.050Z,75.000000
2024-03-11T03:53:18.742Z,75.000000
2024-03-11T03:54:18.629Z,75.000000
2024-03-11T03:55:18.575Z,75.000000
2024-03-11T03:56:18.696Z,75.000000
2024-03-11T03:57:18.721Z,75.000000
2024-03-11T03:58:18.839Z,75.000000
2024-03-11T03:59:19.358Z,76.000000
2024-03-11T04:00:18.755Z,76.000000
2024-03-11T04:01:18.618Z,76.000000
2024-03-11T04:02:18.395Z,76.000000
2024-03-11T04:03:18.481Z,76.000000
2024-03-11T04:04:18.532Z,76.000000
2024-03-11T04:05:19.091Z,76.000000
2024-03-11T04:06:19.175Z,76.000000
2024-03-11T04:07:18.693Z,76.000000
2024-03-11T04:08:18.737Z,76.000000
2024-03-11T04:09:18.959Z,76.000000
2024-03-11T04:10:19.182Z,76.000000
2024-03-11T04:11:20.936Z,76.000000
2024-03-11T04:12:18.501Z,77.000000
2024-03-11T04:13:18.960Z,77.000000
2024-03-11T04:14:18.449Z,77.000000
2024-03-11T04:15:18.532Z,77.000000
2024-03-11T04:16:18.666Z,77.000000
2024-03-11T04:17:19.142Z,77.000000
2024-03-11T04:18:18.666Z,77.000000
2024-03-11T04:19:18.753Z,77.000000
2024-03-11T04:20:19.314Z,77.000000
2024-03-11T04:21:18.820Z,77.000000
2024-03-11T04:22:18.964Z,77.000000
2024-03-11T04:23:18.419Z,77.000000
2024-03-11T04:24:18.619Z,77.000000
2024-03-11T04:25:18.462Z,77.000000
2024-03-11T04:26:18.568Z,77.000000
2024-03-11T04:27:19.034Z,77.000000
2024-03-11T04:28:18.601Z,77.000000
2024-03-11T04:29:18.703Z,77.000000
2024-03-11T04:30:18.694Z,77.000000
2024-03-11T04:31:18.754Z,77.000000
2024-03-11T04:32:18.922Z,77.000000
2024-03-11T04:33:18.860Z,77.000000
2024-03-11T04:34:18.878Z,78.000000
2024-03-11T04:35:18.427Z,78.000000
2024-03-11T04:36:18.543Z,78.000000
2024-03-11T04:37:18.498Z,78.000000
2024-03-11T04:38:18.645Z,78.000000
2024-03-11T04:39:18.605Z,78.000000
2024-03-11T04:40:18.612Z,78.000000
2024-03-11T04:41:19.275Z,78.000000
2024-03-11T04:42:18.706Z,78.000000
2024-03-11T04:43:18.878Z,78.000000
2024-03-11T04:44:18.970Z,78.000000
2024-03-11T04:45:19.017Z,78.000000
2024-03-11T04:46:18.916Z,78.000000
2024-03-11T04:47:18.462Z,78.000000
2024-03-11T04:48:19.066Z,78.000000
2024-03-11T04:49:18.568Z,78.000000
2024-03-11T04:50:18.639Z,79.000000
2024-03-11T04:51:18.650Z,79.000000
2024-03-11T04:52:18.740Z,79.000000
2024-03-11T04:53:18.816Z,79.000000
2024-03-11T04:54:18.748Z,79.000000
2024-03-11T04:55:19.363Z,79.000000
2024-03-11T04:56:18.933Z,79.000000
2024-03-11T04:57:18.953Z,79.000000
2024-03-11T04:58:18.949Z,79.000000
2024-03-11T04:59:18.515Z,79.000000
2024-03-11T05:00:18.493Z,79.000000
2024-03-11T05:01:18.629Z,79.000000
2024-03-11T05:02:19.267Z,79.000000
2024-03-11T05:03:18.665Z,79.000000
2024-03-11T05:04:18.728Z,79.000000
2024-03-11T05:05:18.776Z,79.000000
2024-03-11T05:06:18.839Z,79.000000
2024-03-11T05:07:18.838Z,79.000000
2024-03-11T05:08:18.887Z,80.000000
2024-03-11T05:09:19.425Z,80.000000
2024-03-11T05:10:19.039Z,80.000000
2024-03-11T05:11:18.845Z,80.000000
2024-03-11T05:12:18.730Z,80.000000
2024-03-11T05:13:18.654Z,80.000000
2024-03-11T05:14:18.656Z,80.000000
2024-03-11T05:15:18.945Z,80.000000
2024-03-11T05:16:19.240Z,80.000000
2024-03-11T05:17:18.937Z,80.000000
2024-03-11T05:18:18.944Z,80.000000
2024-03-11T05:19:18.843Z,80.000000
2024-03-11T05:20:18.506Z,80.000000
2024-03-11T05:21:20.195Z,80.000000
2024-03-11T05:22:18.552Z,80.000000
2024-03-11T05:23:19.057Z,80.000000
2024-03-11T05:24:18.588Z,80.000000
2024-03-11T05:25:18.719Z,80.000000
2024-03-11T05:26:18.760Z,80.000000
2024-03-11T05:27:18.821Z,80.000000
2024-03-11T05:28:18.787Z,81.000000
2024-03-11T05:29:18.866Z,81.000000
2024-03-11T05:30:19.668Z,81.000000
2024-03-11T05:31:18.863Z,81.000000
2024-03-11T05:32:19.067Z,81.000000
2024-03-11T05:33:18.590Z,81.000000
2024-03-11T05:34:18.627Z,81.000000
2024-03-11T05:35:22.114Z,81.000000
2024-03-11T05:36:18.677Z,81.000000
2024-03-11T05:37:19.182Z,81.000000
2024-03-11T05:38:18.746Z,81.000000
2024-03-11T05:39:18.813Z,81.000000
2024-03-11T05:40:18.832Z,82.000000
2024-03-11T05:41:18.858Z,81.000000
2024-03-11T05:42:18.941Z,81.000000
2024-03-11T05:43:18.959Z,82.000000
2024-03-11T05:44:19.576Z,82.000000
2024-03-11T05:45:18.613Z,82.000000
2024-03-11T05:46:18.610Z,82.000000
2024-03-11T05:47:18.736Z,82.000000
2024-03-11T05:48:18.680Z,82.000000
2024-03-11T05:49:18.753Z,82.000000
2024-03-11T05:50:18.823Z,82.000000
2024-03-11T05:51:18.884Z,82.000000
2024-03-11T05:52:18.827Z,82.000000
2024-03-11T05:53:19.063Z,82.000000
2024-03-11T05:54:18.943Z,82.000000
2024-03-11T05:55:19.046Z,82.000000
2024-03-11T05:56:18.571Z,82.000000
2024-03-11T05:57:18.623Z,82.000000
2024-03-11T05:58:19.050Z,82.000000
2024-03-11T05:59:18.724Z,82.000000
2024-03-11T06:00:19.107Z,82.000000
2024-03-11T06:01:18.903Z,82.000000
2024-03-11T06:02:18.915Z,82.000000
2024-03-11T06:03:19.374Z,82.000000
2024-03-11T06:04:18.911Z,82.000000
2024-03-11T06:05:19.200Z,82.000000
2024-03-11T06:06:18.764Z,82.000000
2024-03-11T06:07:18.838Z,82.000000
2024-03-11T06:08:19.020Z,82.000000
2024-03-11T06:09:18.929Z,82.000000
2024-03-11T06:10:18.943Z,82.000000
2024-03-11T06:11:19.124Z,82.000000
2024-03-11T06:12:19.538Z,82.000000
2024-03-11T06:13:18.598Z,82.000000
2024-03-11T06:14:19.368Z,83.000000
2024-03-11T06:15:18.669Z,83.000000
2024-03-11T06:16:18.699Z,83.000000
2024-03-11T06:17:18.737Z,83.000000
2024-03-11T06:18:18.944Z,83.000000
2024-03-11T06:19:20.078Z,83.000000
2024-03-11T06:20:19.056Z,83.000000
2024-03-11T06:21:19.042Z,83.000000
2024-03-11T06:22:18.975Z,83.000000
2024-03-11T06:23:19.051Z,83.000000
2024-03-11T06:24:19.011Z,83.000000
2024-03-11T06:25:19.112Z,82.000000
2024-03-11T06:26:19.127Z,82.000000
2024-03-11T06:27:18.649Z,82.000000
2024-03-11T06:28:18.895Z,82.000000
2024-03-11T06:29:18.875Z,82.000000
2024-03-11T06:30:18.871Z,83.000000
2024-03-11T06:31:18.896Z,82.000000
2024-03-11T06:32:19.053Z,83.000000
2024-03-11T06:33:19.555Z,83.000000
2024-03-11T06:34:19.207Z,83.000000
2024-03-11T06:35:19.182Z,83.000000
2024-03-11T06:36:18.564Z,83.000000
2024-03-11T06:37:18.693Z,83.000000
2024-03-11T06:38:18.801Z,83.000000
2024-03-11T06:39:18.786Z,83.000000
2024-03-11T06:40:19.460Z,83.000000
2024-03-11T06:41:18.783Z,83.000000
2024-03-11T06:42:18.916Z,83.000000
2024-03-11T06:43:18.969Z,83.000000
2024-03-11T06:44:21.408Z,83.000000
2024-03-11T06:45:19.096Z,83.000000
2024-03-11T06:46:19.053Z,83.000000
2024-03-11T06:47:19.647Z,83.000000
2024-03-11T06:48:18.688Z,83.000000
2024-03-11T06:49:18.685Z,83.000000
2024-03-11T06:50:18.764Z,83.000000
2024-03-11T06:51:18.793Z,83.000000
2024-03-11T06:52:18.911Z,83.000000
2024-03-11T06:53:18.889Z,82.000000
2024-03-11T06:54:19.438Z,82.000000
2024-03-11T06:55:18.916Z,82.000000
2024-03-11T06:56:18.964Z,82.000000
2024-03-11T06:57:19.135Z,81.000000
2024-03-11T06:58:19.091Z,81.000000
2024-03-11T06:59:19.221Z,81.000000
2024-03-11T07:00:19.305Z,81.000000
2024-03-11T07:01:19.313Z,81.000000
2024-03-11T07:02:18.766Z,81.000000
2024-03-11T07:03:18.817Z,81.000000
2024-03-11T07:04:18.800Z,81.000000
2024-03-11T07:05:18.904Z,81.000000
2024-03-11T07:06:18.993Z,81.000000
2024-03-11T07:07:19.007Z,81.000000
2024-03-11T07:08:19.484Z,81.000000
2024-03-11T07:09:19.078Z,81.000000
2024-03-11T07:10:19.177Z,81.000000
2024-03-11T07:11:19.240Z,81.000000
2024-03-11T07:12:18.712Z,81.000000
2024-03-11T07:13:18.748Z,81.000000
2024-03-11T07:14:18.847Z,80.000000
2024-03-11T07:15:19.370Z,80.000000
2024-03-11T07:16:19.211Z,80.000000
2024-03-11T07:17:19.177Z,80.000000
2024-03-11T07:18:19.219Z,80.000000
2024-03-11T07:19:18.997Z,80.000000
2024-03-11T07:20:19.213Z,80.000000
2024-03-11T07:21:19.201Z,80.000000
2024-03-11T07:22:19.157Z,80.000000
2024-03-11T07:23:19.674Z,80.000000
2024-03-11T07:24:18.730Z,80.000000
2024-03-11T07:25:18.882Z,79.000000
2024-03-11T07:26:18.958Z,79.000000
2024-03-11T07:27:18.886Z,79.000000
2024-03-11T07:28:18.949Z,79.000000
2024-03-11T07:29:18.971Z,79.000000
2024-03-11T07:30:20.246Z,79.000000
2024-03-11T07:31:19.185Z,79.000000
2024-03-11T07:32:19.150Z,78.000000
2024-03-11T07:33:19.190Z,79.000000
2024-03-11T07:34:18.702Z,79.000000
2024-03-11T07:35:18.745Z,79.000000
2024-03-11T07:36:18.838Z,79.000000
2024-03-11T07:37:18.921Z,79.000000
2024-03-11T07:38:19.038Z,78.000000
2024-03-11T07:39:18.902Z,78.000000
2024-03-11T07:40:19.043Z,78.000000
2024-03-11T07:41:19.039Z,78.000000
2024-03-11T07:42:19.124Z,77.000000
2024-03-11T07:43:19.081Z,76.000000
2024-03-11T07:44:19.864Z,75.000000
2024-03-11T07:45:19.184Z,75.000000
2024-03-11T07:46:18.716Z,75.000000
2024-03-11T07:47:18.736Z,75.000000
2024-03-11T07:48:18.860Z,75.000000
2024-03-11T07:49:19.412Z,75.000000
2024-03-11T07:50:18.891Z,75.000000
2024-03-11T07:51:19.459Z,75.000000
2024-03-11T07:52:19.043Z,75.000000
2024-03-11T07:53:19.061Z,74.000000
2024-03-11T07:54:19.032Z,74.000000
2024-03-11T07:55:19.163Z,74.000000
2024-03-11T07:56:19.215Z,74.000000
2024-03-11T07:57:19.296Z,74.000000
2024-03-11T07:58:19.217Z,74.000000
2024-03-11T07:59:18.815Z,73.000000
2024-03-11T08:00:18.864Z,72.000000
2024-03-11T08:01:18.932Z,72.000000
2024-03-11T08:02:19.005Z,71.000000
2024-03-11T08:03:19.066Z,71.000000
2024-03-11T08:04:19.152Z,72.000000
2024-03-11T08:05:19.575Z,71.000000
2024-03-11T08:06:19.139Z,70.000000
2024-03-11T08:07:19.215Z,70.000000
2024-03-11T08:08:19.409Z,70.000000
2024-03-11T08:09:19.247Z,70.000000
2024-03-11T08:10:18.959Z,70.000000
2024-03-11T08:11:18.966Z,70.000000
2024-03-11T08:12:20.609Z,70.000000
2024-03-11T08:13:19.502Z,70.000000
2024-03-11T08:14:19.021Z,69.000000
2024-03-11T08:15:19.179Z,69.000000
2024-03-11T08:16:19.257Z,69.000000
2024-03-11T08:17:19.070Z,69.000000
2024-03-11T08:18:19.228Z,69.000000
2024-03-11T08:19:19.812Z,69.000000
2024-03-11T08:20:19.328Z,69.000000
2024-03-11T08:21:19.318Z,69.000000
2024-03-11T08:22:18.798Z,69.000000
2024-03-11T08:23:19.046Z,69.000000
2024-03-11T08:24:19.059Z,69.000000
2024-03-11T08:25:19.142Z,69.000000
2024-03-11T08:26:19.479Z,69.000000
2024-03-11T08:27:19.015Z,69.000000
2024-03-11T08:28:19.215Z,69.000000
2024-03-11T08:29:19.237Z,69.000000
2024-03-11T08:30:19.348Z,69.000000
2024-03-11T08:31:19.244Z,69.000000
2024-03-11T08:32:19.310Z,69.000000
2024-03-11T08:33:19.841Z,69.000000
2024-03-11T08:34:19.397Z,69.000000
2024-03-11T08:35:18.917Z,69.000000
2024-03-11T08:36:18.947Z,68.000000
2024-03-11T08:37:19.068Z,68.000000
2024-03-11T08:38:19.086Z,69.000000
2024-03-11T08:39:20.318Z,68.000000
2024-03-11T08:40:19.699Z,69.000000
2024-03-11T08:41:19.135Z,68.000000
2024-03-11T08:42:19.300Z,69.000000
2024-03-11T08:43:19.351Z,68.000000
2024-03-11T08:44:19.393Z,68.000000
2024-03-11T08:45:18.980Z,68.000000
2024-03-11T08:46:19.059Z,68.000000
2024-03-11T08:47:19.449Z,68.000000
2024-03-11T08:48:19.072Z,68.000000
2024-03-11T08:49:19.097Z,68.000000
2024-03-11T08:50:19.120Z,68.000000
2024-03-11T08:51:19.249Z,68.000000
2024-03-11T08:52:19.219Z,69.000000
2024-03-11T08:53:19.426Z,68.000000
2024-03-11T08:54:19.271Z,69.000000
2024-03-11T08:55:19.337Z,69.000000
2024-03-11T08:56:19.371Z,69.000000
2024-03-11T08:57:18.988Z,69.000000
2024-03-11T08:58:19.010Z,69.000000
2024-03-11T08:59:19.003Z,69.000000
2024-03-11T09:00:20.905Z,70.000000
2024-03-11T09:01:19.615Z,70.000000
2024-03-11T09:02:19.501Z,70.000000
2024-03-11T09:03:20.542Z,69.000000
2024-03-11T09:04:19.249Z,70.000000
2024-03-11T09:05:20.395Z,69.000000
2024-03-11T09:06:19.891Z,69.000000
2024-03-11T09:07:19.365Z,69.000000
2024-03-11T09:08:19.548Z,68.000000
2024-03-11T09:09:18.998Z,68.000000
2024-03-11T09:10:19.030Z,68.000000
2024-03-11T09:11:18.997Z,67.000000
2024-03-11T09:12:19.174Z,68.000000
2024-03-11T09:13:19.076Z,67.000000
2024-03-11T09:14:19.149Z,67.000000
2024-03-11T09:15:20.800Z,66.000000
2024-03-11T09:16:19.269Z,66.000000
2024-03-11T09:17:19.303Z,68.000000
2024-03-11T09:18:19.907Z,67.000000
2024-03-11T09:19:19.420Z,67.000000
2024-03-11T09:20:18.987Z,66.000000
2024-03-11T09:21:19.149Z,67.000000
2024-03-11T09:22:19.485Z,66.000000
2024-03-11T09:23:19.032Z,66.000000
2024-03-11T09:24:19.195Z,67.000000
2024-03-11T09:25:19.234Z,67.000000
2024-03-11T09:26:19.226Z,68.000000
2024-03-11T09:27:19.326Z,68.000000
2024-03-11T09:28:19.303Z,67.000000
2024-03-11T09:29:19.885Z,67.000000
2024-03-11T09:30:19.549Z,68.000000
2024-03-11T09:31:19.509Z,67.000000
2024-03-11T09:32:19.462Z,67.000000
2024-03-11T09:33:19.180Z,67.000000
2024-03-11T09:34:20.146Z,67.000000
2024-03-11T09:35:19.384Z,67.000000
2024-03-11T09:36:19.687Z,67.000000
2024-03-11T09:37:19.183Z,67.000000
2024-03-11T09:38:19.239Z,68.000000
2024-03-11T09:39:19.316Z,68.000000
2024-03-11T09:40:19.399Z,68.000000
2024-03-11T09:41:19.381Z,67.000000
2024-03-11T09:42:19.482Z,67.000000
2024-03-11T09:43:22.106Z,67.000000
2024-03-11T09:44:20.839Z,67.000000
2024-03-11T09:45:19.312Z,66.000000
2024-03-11T09:46:19.102Z,66.000000
2024-03-11T09:47:19.157Z,66.000000
2024-03-11T09:48:19.292Z,65.000000
2024-03-11T09:49:19.345Z,65.000000
2024-03-11T09:50:19.688Z,66.000000
2024-03-11T09:51:19.346Z,65.000000
2024-03-11T09:52:19.365Z,66.000000
2024-03-11T09:53:19.396Z,66.000000
2024-03-11T09:54:19.591Z,66.000000
2024-03-11T09:55:18.994Z,65.000000
2024-03-11T09:56:19.062Z,65.000000
2024-03-11T09:57:19.590Z,64.000000
2024-03-11T09:58:19.211Z,63.000000
2024-03-11T09:59:19.889Z,64.000000
2024-03-11T10:00:19.270Z,64.000000
2024-03-11T10:01:19.353Z,65.000000
2024-03-11T10:02:19.333Z,65.000000
2024-03-11T10:03:19.406Z,65.000000
2024-03-11T10:04:19.904Z,65.000000
2024-03-11T10:05:19.228Z,65.000000
2024-03-11T10:06:19.261Z,65.000000
2024-03-11T10:07:19.315Z,65.000000
2024-03-11T10:08:19.505Z,65.000000
2024-03-11T10:09:19.395Z,65.000000
2024-03-11T10:10:19.434Z,64.000000
2024-03-11T10:11:20.041Z,64.000000
2024-03-11T10:12:20.238Z,65.000000
2024-03-11T10:13:22.764Z,65.000000
2024-03-11T10:14:19.167Z,65.000000
2024-03-11T10:15:19.220Z,64.000000
2024-03-11T10:16:20.125Z,64.000000
2024-03-11T10:17:19.255Z,63.000000
2024-03-11T10:18:19.946Z,63.000000
2024-03-11T10:19:21.720Z,64.000000
2024-03-11T10:20:19.404Z,63.000000
2024-03-11T10:21:19.531Z,62.000000
2024-03-11T10:22:19.431Z,63.000000
2024-03-11T10:23:20.091Z,63.000000
2024-03-11T10:24:19.612Z,63.000000
2024-03-11T10:25:19.780Z,62.000000
2024-03-11T10:26:19.446Z,63.000000
2024-03-11T10:27:19.219Z,64.000000
2024-03-11T10:28:19.324Z,63.000000
2024-03-11T10:29:19.313Z,64.000000
2024-03-11T10:30:19.292Z,65.000000
2024-03-11T10:31:19.340Z,65.000000
2024-03-11T10:32:20.011Z,64.000000
2024-03-11T10:33:19.616Z,65.000000
2024-03-11T10:34:19.469Z,65.000000
2024-03-11T10:35:19.534Z,63.000000
2024-03-11T10:36:19.650Z,63.000000
2024-03-11T10:37:19.082Z,64.000000
2024-03-11T10:38:19.244Z,64.000000
2024-03-11T10:39:19.887Z,63.000000
2024-03-11T10:40:19.846Z,63.000000
2024-03-11T10:41:19.290Z,63.000000
2024-03-11T10:42:19.389Z,62.000000
2024-03-11T10:43:20.849Z,62.000000
2024-03-11T10:44:19.505Z,63.000000
2024-03-11T10:45:19.591Z,64.000000
2024-03-11T10:46:20.042Z,63.000000
2024-03-11T10:47:19.052Z,64.000000
2024-03-11T10:48:19.636Z,64.000000
2024-03-11T10:49:19.174Z,64.000000
2024-03-11T10:50:19.261Z,64.000000
2024-03-11T10:51:19.341Z,64.000000
2024-03-11T10:52:19.471Z,64.000000
2024-03-11T10:53:19.876Z,63.000000
2024-03-11T10:54:19.495Z,63.000000
2024-03-11T10:55:19.470Z,64.000000
2024-03-11T10:56:19.605Z,65.000000
2024-03-11T10:57:19.589Z,64.000000
2024-03-11T10:58:19.089Z,64.000000
2024-03-11T10:59:19.659Z,65.000000
2024-03-11T11:00:20.646Z,65.000000
2024-03-11T11:01:19.260Z,64.000000
2024-03-11T11:02:19.309Z,61.000000
2024-03-11T11:03:19.303Z,61.000000
2024-03-11T11:04:19.996Z,62.000000
2024-03-11T11:05:19.331Z,62.000000
2024-03-11T11:06:19.398Z,62.000000
2024-03-11T11:07:20.014Z,62.000000
2024-03-11T11:08:19.501Z,63.000000
2024-03-11T11:09:19.681Z,62.000000
2024-03-11T11:10:19.656Z,63.000000
2024-03-11T11:11:19.347Z,62.000000
2024-03-11T11:12:19.306Z,62.000000
2024-03-11T11:13:19.237Z,63.000000
2024-03-11T11:14:19.788Z,63.000000
2024-03-11T11:15:19.306Z,63.000000
2024-03-11T11:16:19.408Z,64.000000
2024-03-11T11:17:19.388Z,63.000000
2024-03-11T11:18:19.577Z,63.000000
2024-03-11T11:19:19.480Z,63.000000
2024-03-11T11:20:19.629Z,63.000000
2024-03-11T11:21:20.135Z,64.000000
2024-03-11T11:22:19.703Z,64.000000
2024-03-11T11:23:19.243Z,65.000000
2024-03-11T11:24:19.238Z,65.000000